Terminal Aerodrome Forecast
Issued by NWS Cleveland, OH

Home | Current Version | Previous Version | Text Only | Print | Product List | Glossary Off
Versions: 1 2 3 4 5 6 7 8 9 10 11 12 13 14 15 16 17 18 19 20 21 22 23 24 25 26 27

254
FTUS41 KCLE 270210 AAB
TAFCLE
TAF AMD
KCLE 270210Z 2702/2806 19010KT P6SM VCSH SCT040 BKN150
      TEMPO 2702/2706 5SM -SHRA BKN030
     FM270600 20005KT 5SM BR OVC015
     FM271400 22006KT P6SM OVC020
     FM271800 23008KT P6SM BKN025
     FM272100 23006KT P6SM BKN050 OVC150=

USA.gov is the U.S. government's official web portal to all federal, state and local government web resources and services.